Time;durP1;ratioP1;P1;durP2;ratioP2;P2;SDS_P1;SDS_P2;PMS_P1;PMS_P2;Temp;Humidity;BMP_temperature;BMP_pressure;BME280_temperature;BME280_humidity;BME280_pressure;Samples;Min_cycle;Max_cycle;Signal;HPM_P1;HPM_P2
2021/12/27 00:01:16;;;;;;;2.10;1.50;;;11.20;99.90;;;;;;5060255;28;20237;-70
2021/12/27 00:03:42;;;;;;;2.10;1.50;;;11.30;99.90;;;;;;5035217;28;20186;-69
2021/12/27 00:06:09;;;;;;;1.50;1.40;;;11.30;99.90;;;;;;5038232;28;20893;-69
2021/12/27 00:08:42;;;;;;;2.20;1.83;;;11.40;99.90;;;;;;5041830;28;20620;-69
2021/12/27 00:11:13;;;;;;;1.80;1.40;;;11.40;99.90;;;;;;5037693;28;20270;-70
2021/12/27 00:13:41;;;;;;;2.67;1.50;;;11.40;99.90;;;;;;5051077;28;20242;-70
2021/12/27 00:16:08;;;;;;;4.57;1.70;;;11.40;99.90;;;;;;5041530;28;20311;-69
2021/12/27 00:18:34;;;;;;;2.40;1.60;;;11.40;99.90;;;;;;5052803;28;20232;-70
2021/12/27 00:21:01;;;;;;;2.03;1.83;;;11.40;99.90;;;;;;5030810;28;20232;-70
2021/12/27 00:23:27;;;;;;;2.63;1.63;;;11.50;99.90;;;;;;5041031;28;20194;-69
2021/12/27 00:25:54;;;;;;;2.20;1.77;;;11.50;99.90;;;;;;5040433;28;20326;-69
2021/12/27 00:28:20;;;;;;;3.60;1.60;;;11.40;99.90;;;;;;5058797;28;20222;-69
2021/12/27 00:30:47;;;;;;;1.97;1.60;;;11.40;99.90;;;;;;5045129;28;20277;-70
2021/12/27 00:33:13;;;;;;;2.33;1.70;;;11.40;99.90;;;;;;5049787;28;21034;-70
2021/12/27 00:35:40;;;;;;;1.97;1.60;;;11.40;99.90;;;;;;5022666;28;20724;-70
2021/12/27 00:38:08;;;;;;;3.23;1.60;;;11.40;99.90;;;;;;5047330;28;20184;-70
2021/12/27 00:40:35;;;;;;;1.80;1.50;;;11.40;99.90;;;;;;5047686;28;20720;-69
2021/12/27 00:43:02;;;;;;;1.93;1.83;;;11.40;99.90;;;;;;5056215;28;20250;-70
2021/12/27 00:45:29;;;;;;;1.97;1.77;;;11.40;99.90;;;;;;5052795;28;20696;-69
2021/12/27 00:47:55;;;;;;;1.87;1.50;;;11.40;99.90;;;;;;5035827;28;20195;-70
2021/12/27 00:50:22;;;;;;;1.50;1.40;;;11.40;99.90;;;;;;5045648;28;20195;-70
2021/12/27 00:52:50;;;;;;;1.80;1.70;;;11.40;99.90;;;;;;5051806;28;20287;-70
2021/12/27 00:55:18;;;;;;;1.70;1.53;;;11.40;99.90;;;;;;5046935;28;20632;-70
2021/12/27 00:57:46;;;;;;;1.40;1.30;;;11.40;99.90;;;;;;5044762;28;20187;-70
2021/12/27 01:00:17;;;;;;;2.63;1.70;;;11.30;99.90;;;;;;5056615;28;20192;-70
2021/12/27 01:02:45;;;;;;;2.37;1.70;;;11.40;99.90;;;;;;5052200;28;20613;-69
2021/12/27 01:05:13;;;;;;;2.23;1.60;;;11.40;99.90;;;;;;5045025;28;20187;-69
2021/12/27 01:07:41;;;;;;;3.40;1.80;;;11.40;99.90;;;;;;5046850;28;20527;-69
2021/12/27 01:18:06;;;;;;;3.70;2.00;;;11.40;99.90;;;;;;5040526;28;20223;-69
2021/12/27 01:20:35;;;;;;;2.37;1.80;;;11.30;99.90;;;;;;5051184;28;20309;-70
2021/12/27 01:23:01;;;;;;;2.73;1.90;;;11.30;99.90;;;;;;5056456;28;20314;-70
2021/12/27 01:25:28;;;;;;;2.37;2.00;;;11.30;99.90;;;;;;5054758;28;20227;-69
2021/12/27 01:27:54;;;;;;;2.20;1.80;;;11.30;99.90;;;;;;5061345;28;20302;-70
2021/12/27 01:30:22;;;;;;;2.13;1.90;;;11.20;99.90;;;;;;5052509;28;20229;-69
2021/12/27 01:32:55;;;;;;;2.20;1.80;;;11.20;99.90;;;;;;5046683;28;20198;-69
2021/12/27 01:35:23;;;;;;;2.30;2.03;;;11.20;99.90;;;;;;5062458;28;20183;-69
2021/12/27 01:37:53;;;;;;;3.20;1.80;;;11.20;99.90;;;;;;5063871;28;20241;-69
2021/12/27 01:40:26;;;;;;;3.50;2.00;;;11.20;99.90;;;;;;5050674;28;20230;-70
2021/12/27 01:43:19;;;;;;;4.47;1.97;;;11.20;99.90;;;;;;5057394;28;20212;-69
2021/12/27 01:45:59;;;;;;;1.93;1.77;;;11.10;99.90;;;;;;5053738;28;20191;-69
2021/12/27 01:48:31;;;;;;;2.10;1.80;;;11.10;99.90;;;;;;5053901;28;20221;-69
2021/12/27 01:51:01;;;;;;;2.20;2.00;;;11.10;99.90;;;;;;5056925;28;20223;-69
2021/12/27 01:53:32;;;;;;;3.80;1.80;;;11.20;99.90;;;;;;5061592;28;20203;-69
2021/12/27 01:56:01;;;;;;;1.70;1.60;;;11.10;99.90;;;;;;5054545;28;20195;-69
2021/12/27 01:58:28;;;;;;;4.17;2.27;;;11.10;99.90;;;;;;5020666;28;20249;-69
2021/12/27 02:00:59;;;;;;;2.07;1.70;;;11.10;99.90;;;;;;5052643;28;20188;-70
2021/12/27 02:03:29;;;;;;;2.10;1.90;;;11.10;99.90;;;;;;5041378;28;20303;-70
2021/12/27 02:05:56;;;;;;;3.30;1.90;;;11.10;99.90;;;;;;5041641;28;20195;-69
2021/12/27 02:08:23;;;;;;;2.77;1.80;;;11.00;99.90;;;;;;5031044;28;20218;-70
2021/12/27 02:10:50;;;;;;;3.87;1.90;;;10.90;99.90;;;;;;5039399;28;20201;-70
2021/12/27 02:13:18;;;;;;;2.40;1.77;;;10.90;99.90;;;;;;5058145;28;20217;-69
2021/12/27 02:15:45;;;;;;;2.07;1.60;;;10.90;99.90;;;;;;5034808;28;20257;-70
2021/12/27 02:18:11;;;;;;;1.67;1.43;;;10.90;99.90;;;;;;5038224;28;20187;-70
2021/12/27 02:20:41;;;;;;;2.00;1.70;;;10.90;99.90;;;;;;5040668;28;20670;-70
2021/12/27 02:23:15;;;;;;;3.17;1.83;;;10.90;99.90;;;;;;5042780;28;20219;-70
2021/12/27 02:25:45;;;;;;;2.83;1.60;;;10.90;99.90;;;;;;5062007;28;20187;-70
2021/12/27 02:28:13;;;;;;;2.47;1.80;;;10.90;99.90;;;;;;5047311;28;20670;-69
2021/12/27 02:30:41;;;;;;;2.70;1.90;;;10.80;99.90;;;;;;5044756;28;20199;-69
2021/12/27 02:33:09;;;;;;;3.07;2.03;;;10.70;99.90;;;;;;5044726;28;20298;-69
2021/12/27 02:35:47;;;;;;;2.20;1.73;;;10.70;99.90;;;;;;5039982;28;20207;-69
2021/12/27 02:38:27;;;;;;;2.73;1.83;;;10.50;99.90;;;;;;5058756;28;20718;-69
2021/12/27 02:40:56;;;;;;;3.57;2.00;;;10.50;99.90;;;;;;5044563;28;20615;-69
2021/12/27 02:43:29;;;;;;;2.27;1.73;;;10.40;99.90;;;;;;5048955;28;20217;-70
2021/12/27 02:46:05;;;;;;;2.77;1.80;;;10.40;99.90;;;;;;5039736;28;20245;-69
2021/12/27 02:48:38;;;;;;;5.07;1.97;;;10.40;99.90;;;;;;5050291;28;20187;-69
2021/12/27 02:51:05;;;;;;;4.10;1.60;;;10.40;99.90;;;;;;5054613;28;20187;-69
2021/12/27 02:53:32;;;;;;;2.10;1.80;;;10.40;99.90;;;;;;5058793;28;20265;-69
2021/12/27 02:56:01;;;;;;;2.23;1.90;;;10.40;99.90;;;;;;5039435;28;20198;-69
2021/12/27 02:58:28;;;;;;;6.77;2.07;;;10.30;99.90;;;;;;5042554;28;20253;-69
2021/12/27 03:01:06;;;;;;;5.83;2.20;;;10.20;99.90;;;;;;5071245;28;20274;-69
2021/12/27 03:03:33;;;;;;;1.73;1.57;;;10.20;99.90;;;;;;5043359;28;20229;-70
2021/12/27 03:06:00;;;;;;;2.33;1.80;;;10.20;99.90;;;;;;5063724;28;20202;-70
2021/12/27 03:08:27;;;;;;;2.23;1.70;;;10.10;99.90;;;;;;5041047;28;20179;-69
2021/12/27 03:10:59;;;;;;;2.23;2.03;;;10.10;99.90;;;;;;5023211;28;20948;-70
2021/12/27 03:13:37;;;;;;;2.47;1.80;;;10.10;99.90;;;;;;5057947;28;20278;-70
2021/12/27 03:16:09;;;;;;;3.23;2.03;;;10.10;99.90;;;;;;5044610;28;20271;-70
2021/12/27 03:18:40;;;;;;;2.87;1.93;;;10.10;99.90;;;;;;5053886;28;20187;-70
2021/12/27 03:21:07;;;;;;;2.10;1.70;;;10.10;99.90;;;;;;5051480;28;20268;-70
2021/12/27 03:23:35;;;;;;;2.00;1.80;;;10.00;99.90;;;;;;5030827;28;20222;-70
2021/12/27 03:26:01;;;;;;;2.10;1.90;;;9.90;99.90;;;;;;5049280;28;20199;-69
2021/12/27 03:28:28;;;;;;;4.00;2.10;;;9.80;99.90;;;;;;5053673;28;20240;-68
2021/12/27 03:30:55;;;;;;;3.73;2.17;;;9.70;99.90;;;;;;5054757;28;20202;-68
2021/12/27 03:33:23;;;;;;;2.43;2.00;;;9.80;99.90;;;;;;5041356;28;20194;-69
2021/12/27 03:36:01;;;;;;;3.10;1.97;;;9.70;99.90;;;;;;5058744;28;20199;-69
2021/12/27 03:38:36;;;;;;;3.13;2.10;;;9.60;99.90;;;;;;5035688;28;20214;-70
2021/12/27 03:41:08;;;;;;;2.17;1.97;;;9.60;99.90;;;;;;5042147;28;20215;-70
2021/12/27 03:43:37;;;;;;;2.57;1.93;;;9.70;99.90;;;;;;5038576;28;20252;-69
2021/12/27 03:46:04;;;;;;;3.30;1.73;;;9.70;99.90;;;;;;5037591;28;20771;-69
2021/12/27 03:48:31;;;;;;;2.23;1.97;;;9.70;99.90;;;;;;5031947;28;20321;-68
2021/12/27 03:50:58;;;;;;;2.53;1.73;;;9.60;99.90;;;;;;5039389;28;20253;-68
2021/12/27 03:53:24;;;;;;;2.83;2.10;;;9.60;99.90;;;;;;5030948;28;20561;-69
2021/12/27 03:55:51;;;;;;;2.10;1.90;;;9.60;99.90;;;;;;5045007;28;20211;-69
2021/12/27 03:58:27;;;;;;;3.47;2.23;;;9.60;99.90;;;;;;5061479;28;20218;-69
2021/12/27 04:03:22;;;;;;;1.90;1.70;;;9.50;99.90;;;;;;5042062;28;20298;-67
2021/12/27 04:05:49;;;;;;;3.93;2.17;;;9.40;99.90;;;;;;5042581;28;20179;-68
2021/12/27 04:08:18;;;;;;;4.37;2.17;;;9.40;99.90;;;;;;5057276;28;20644;-67
2021/12/27 04:10:46;;;;;;;3.90;2.30;;;9.40;99.90;;;;;;5042520;28;20180;-68
2021/12/27 04:13:12;;;;;;;2.27;2.03;;;9.40;99.90;;;;;;5047644;28;20195;-67
2021/12/27 04:15:40;;;;;;;2.67;2.37;;;9.40;99.90;;;;;;5045802;28;20183;-67
2021/12/27 04:18:11;;;;;;;8.77;4.67;;;9.50;99.90;;;;;;5065152;28;20187;-67
2021/12/27 04:20:38;;;;;;;12.30;9.70;;;9.50;99.90;;;;;;5055065;28;20687;-67
2021/12/27 04:23:05;;;;;;;28.70;19.60;;;9.50;99.90;;;;;;5048946;28;20774;-67
2021/12/27 04:25:32;;;;;;;19.57;15.00;;;9.50;99.90;;;;;;5046158;28;20648;-68
2021/12/27 04:27:58;;;;;;;12.90;10.00;;;9.40;99.90;;;;;;5050012;28;20191;-67
2021/12/27 04:30:27;;;;;;;5.60;4.53;;;9.30;99.90;;;;;;5051236;28;20196;-67
2021/12/27 04:32:53;;;;;;;6.60;2.80;;;9.30;99.90;;;;;;5065577;28;20295;-67
2021/12/27 04:35:21;;;;;;;3.27;2.27;;;9.30;99.90;;;;;;5051802;28;20230;-68
2021/12/27 04:37:50;;;;;;;3.97;2.30;;;9.30;99.90;;;;;;5044028;28;20840;-68
2021/12/27 04:40:21;;;;;;;2.73;2.37;;;9.30;99.90;;;;;;5047247;28;20195;-68
2021/12/27 04:43:10;;;;;;;2.40;2.20;;;9.30;99.90;;;;;;5049565;28;20211;-67
2021/12/27 04:45:38;;;;;;;4.60;2.00;;;9.20;99.90;;;;;;5040927;28;20609;-68
2021/12/27 04:48:05;;;;;;;4.17;2.00;;;9.30;99.90;;;;;;5048424;28;20175;-68
2021/12/27 04:50:32;;;;;;;4.07;2.20;;;9.30;99.90;;;;;;5039753;28;20187;-68
2021/12/27 04:52:59;;;;;;;2.70;1.90;;;9.30;99.90;;;;;;5041884;28;20278;-68
2021/12/27 04:55:26;;;;;;;3.90;2.17;;;9.20;99.90;;;;;;5049781;28;20194;-70
2021/12/27 04:57:53;;;;;;;2.80;1.90;;;9.20;99.90;;;;;;5064921;28;20536;-71
2021/12/27 05:00:20;;;;;;;2.30;2.10;;;9.20;99.90;;;;;;5062683;28;20188;-70
2021/12/27 05:02:47;;;;;;;2.87;2.20;;;9.20;99.90;;;;;;5064539;28;20210;-70
2021/12/27 05:05:13;;;;;;;3.37;2.13;;;9.20;99.90;;;;;;5041186;28;20653;-70
2021/12/27 05:07:40;;;;;;;4.57;2.43;;;9.20;99.90;;;;;;5038030;28;20291;-71
2021/12/27 05:10:07;;;;;;;2.30;2.10;;;9.20;99.90;;;;;;5042612;28;20211;-66
2021/12/27 05:12:34;;;;;;;3.37;2.30;;;9.10;99.90;;;;;;5046185;28;20215;-66
2021/12/27 05:15:00;;;;;;;5.30;2.27;;;9.20;99.90;;;;;;5044215;28;20188;-67
2021/12/27 05:17:26;;;;;;;2.47;2.17;;;9.20;99.90;;;;;;5041291;28;20188;-66
2021/12/27 05:19:52;;;;;;;4.23;2.37;;;9.20;99.90;;;;;;5039905;28;20199;-66
2021/12/27 05:22:19;;;;;;;2.90;2.07;;;9.20;99.90;;;;;;5053619;28;20952;-66
2021/12/27 05:24:45;;;;;;;4.23;2.17;;;9.20;99.90;;;;;;5047375;28;20183;-65
2021/12/27 05:27:11;;;;;;;2.20;2.00;;;9.30;99.90;;;;;;5058155;28;20513;-66
2021/12/27 05:29:38;;;;;;;2.43;2.07;;;9.30;99.90;;;;;;5047038;28;20199;-65
2021/12/27 05:32:05;;;;;;;4.27;2.63;;;9.30;99.90;;;;;;5045598;28;20191;-65
2021/12/27 05:34:32;;;;;;;2.93;2.60;;;9.30;99.90;;;;;;5030893;28;20834;-67
2021/12/27 05:36:58;;;;;;;2.73;2.20;;;9.40;99.90;;;;;;5046244;28;20943;-67
2021/12/27 05:39:25;;;;;;;2.53;2.10;;;9.30;99.90;;;;;;5051107;28;21220;-67
2021/12/27 05:41:51;;;;;;;3.80;2.70;;;9.40;99.90;;;;;;5047647;28;20258;-67
2021/12/27 05:44:18;;;;;;;2.63;2.43;;;9.40;99.90;;;;;;5044074;28;20329;-67
2021/12/27 05:46:45;;;;;;;2.63;2.43;;;9.40;99.90;;;;;;5052071;28;20191;-67
2021/12/27 05:49:11;;;;;;;2.30;2.10;;;9.50;99.90;;;;;;5060519;28;20234;-67
2021/12/27 05:51:37;;;;;;;2.47;2.27;;;9.50;99.90;;;;;;5053956;28;20215;-67
2021/12/27 05:54:05;;;;;;;2.70;2.30;;;9.50;99.90;;;;;;5055292;28;20187;-67
2021/12/27 05:56:31;;;;;;;5.00;2.43;;;9.60;99.90;;;;;;5063327;28;20544;-67
2021/12/27 05:58:58;;;;;;;4.00;2.50;;;9.60;99.90;;;;;;5061342;28;20804;-64
2021/12/27 06:01:24;;;;;;;2.57;2.37;;;9.60;99.90;;;;;;5037215;28;20795;-64
2021/12/27 06:03:50;;;;;;;4.67;2.20;;;9.60;99.90;;;;;;5029420;28;20221;-65
2021/12/27 06:06:16;;;;;;;4.13;2.60;;;9.80;99.90;;;;;;5057749;28;20191;-66
2021/12/27 06:08:43;;;;;;;9.50;2.70;;;9.80;99.90;;;;;;5043379;28;20783;-65
2021/12/27 06:11:09;;;;;;;3.10;2.80;;;9.90;99.90;;;;;;5047440;28;20639;-66
2021/12/27 06:13:36;;;;;;;3.43;2.40;;;10.00;99.90;;;;;;5047280;28;20191;-66
2021/12/27 06:16:02;;;;;;;3.37;2.40;;;10.10;99.90;;;;;;5053604;28;20207;-65
2021/12/27 06:18:28;;;;;;;2.40;2.20;;;10.10;99.90;;;;;;5039923;28;20636;-65
2021/12/27 06:20:55;;;;;;;3.07;2.40;;;10.20;99.90;;;;;;5061667;28;20234;-64
2021/12/27 06:23:21;;;;;;;2.70;2.30;;;10.30;99.90;;;;;;5057051;28;20270;-65
2021/12/27 06:25:47;;;;;;;4.57;2.30;;;10.30;99.90;;;;;;5035434;28;20187;-65
2021/12/27 06:28:13;;;;;;;3.63;2.60;;;10.40;99.90;;;;;;5063097;28;20900;-65
2021/12/27 06:30:42;;;;;;;3.10;2.50;;;10.40;99.90;;;;;;5061059;28;20708;-68
2021/12/27 06:33:10;;;;;;;4.67;2.23;;;10.50;99.90;;;;;;5036692;28;20233;-68
2021/12/27 06:35:37;;;;;;;2.50;2.30;;;10.50;99.90;;;;;;5061388;28;20814;-68
2021/12/27 06:38:04;;;;;;;2.20;2.00;;;10.60;99.90;;;;;;5045581;28;20187;-68
2021/12/27 06:40:31;;;;;;;2.60;2.40;;;10.60;99.90;;;;;;5053772;28;20179;-67
2021/12/27 06:42:58;;;;;;;3.87;2.10;;;10.70;99.90;;;;;;5047395;28;20233;-68
2021/12/27 06:45:25;;;;;;;2.60;2.40;;;10.70;99.90;;;;;;5047638;28;20349;-67
2021/12/27 06:47:51;;;;;;;2.47;2.27;;;10.80;99.90;;;;;;5061753;28;20881;-67
2021/12/27 06:50:18;;;;;;;2.70;2.37;;;10.80;99.90;;;;;;5044199;28;20202;-67
2021/12/27 06:52:45;;;;;;;2.63;2.20;;;10.90;99.90;;;;;;5060054;28;20229;-67
2021/12/27 06:55:12;;;;;;;2.97;2.10;;;10.90;99.90;;;;;;5054133;28;20628;-69
2021/12/27 06:57:40;;;;;;;2.90;2.17;;;11.00;99.90;;;;;;5030570;28;20183;-67
2021/12/27 07:00:12;;;;;;;2.93;1.90;;;11.00;99.90;;;;;;5061908;28;20858;-67
2021/12/27 07:02:39;;;;;;;3.03;2.00;;;11.00;99.90;;;;;;5046000;28;20206;-67
2021/12/27 07:05:07;;;;;;;3.77;2.00;;;11.10;99.90;;;;;;5045626;28;20195;-66
2021/12/27 07:07:33;;;;;;;2.27;2.00;;;11.10;99.90;;;;;;5061723;28;20298;-67
2021/12/27 07:10:00;;;;;;;4.20;1.90;;;11.10;99.90;;;;;;5055920;28;20565;-67
2021/12/27 07:12:26;;;;;;;2.77;2.30;;;11.10;99.90;;;;;;5043562;28;20248;-67
2021/12/27 07:14:53;;;;;;;2.40;2.00;;;11.10;99.90;;;;;;5059440;28;20219;-67
2021/12/27 07:17:20;;;;;;;2.20;2.00;;;11.10;99.90;;;;;;5036758;28;20406;-67
2021/12/27 07:19:47;;;;;;;1.90;1.80;;;11.10;99.90;;;;;;5058681;28;20175;-67
2021/12/27 07:22:14;;;;;;;2.20;1.90;;;11.10;99.90;;;;;;5039586;28;20297;-67
2021/12/27 07:24:40;;;;;;;2.00;1.80;;;11.20;99.90;;;;;;5036147;28;20742;-68
2021/12/27 07:27:06;;;;;;;2.20;2.00;;;11.20;99.90;;;;;;5056096;28;20242;-67
2021/12/27 07:29:33;;;;;;;3.07;2.20;;;11.20;99.90;;;;;;5041109;28;20664;-67
2021/12/27 07:31:59;;;;;;;2.20;2.00;;;11.30;99.90;;;;;;5056134;28;20188;-68
2021/12/27 07:34:27;;;;;;;2.30;2.10;;;11.40;99.90;;;;;;5052934;28;20191;-68
2021/12/27 07:36:56;;;;;;;2.27;2.00;;;11.50;99.90;;;;;;5058396;28;20282;-67
2021/12/27 07:39:26;;;;;;;2.27;1.70;;;11.50;99.90;;;;;;5050522;28;20189;-68
2021/12/27 07:41:56;;;;;;;7.00;2.20;;;11.50;99.90;;;;;;5043157;28;20245;-68
2021/12/27 07:44:22;;;;;;;2.00;1.80;;;11.50;99.90;;;;;;5057333;28;20180;-67
2021/12/27 07:46:49;;;;;;;5.13;2.23;;;11.50;99.90;;;;;;5058528;28;20390;-68
2021/12/27 07:49:16;;;;;;;2.13;1.70;;;11.50;99.90;;;;;;5061965;28;20278;-68
2021/12/27 07:51:45;;;;;;;5.23;2.00;;;11.50;99.90;;;;;;5035752;28;20827;-68
2021/12/27 07:54:11;;;;;;;2.20;1.90;;;11.50;99.90;;;;;;5050135;28;20180;-67
2021/12/27 07:56:38;;;;;;;2.10;1.90;;;11.60;99.90;;;;;;5036549;28;20560;-67
2021/12/27 07:59:05;;;;;;;2.80;2.10;;;11.60;99.90;;;;;;5039555;28;20226;-68
2021/12/27 08:01:38;;;;;;;2.03;1.80;;;11.60;99.90;;;;;;5059655;28;20305;-67
2021/12/27 08:04:06;;;;;;;2.10;1.90;;;11.70;99.90;;;;;;5031937;28;20644;-67
2021/12/27 08:06:33;;;;;;;2.33;1.93;;;11.70;99.90;;;;;;5061137;28;20636;-66
2021/12/27 08:08:59;;;;;;;3.50;2.10;;;11.70;99.90;;;;;;5045812;28;20176;-67
2021/12/27 08:11:26;;;;;;;2.53;2.10;;;11.70;99.90;;;;;;5037615;28;20189;-67
2021/12/27 08:13:53;;;;;;;4.07;1.80;;;11.80;99.90;;;;;;5052622;28;20176;-66
2021/12/27 08:16:24;;;;;;;2.17;1.60;;;11.80;99.90;;;;;;5035457;28;20184;-68
2021/12/27 08:18:55;;;;;;;2.00;1.80;;;11.90;99.90;;;;;;5049121;28;20194;-68
2021/12/27 08:21:24;;;;;;;2.17;1.97;;;12.00;99.90;;;;;;5024705;28;20203;-66
2021/12/27 08:23:52;;;;;;;2.27;1.80;;;12.00;99.90;;;;;;5033324;28;20285;-66
2021/12/27 08:26:20;;;;;;;2.30;1.63;;;12.10;99.90;;;;;;5032083;28;20215;-66
2021/12/27 08:28:50;;;;;;;1.60;1.50;;;12.10;99.90;;;;;;5038646;28;20266;-66
2021/12/27 08:31:17;;;;;;;1.83;1.40;;;12.10;99.90;;;;;;5034753;28;20606;-67
2021/12/27 08:33:43;;;;;;;2.43;1.50;;;12.10;99.90;;;;;;5041946;28;20531;-66
2021/12/27 08:36:10;;;;;;;1.80;1.20;;;12.10;99.90;;;;;;5059818;28;20207;-66
2021/12/27 08:38:36;;;;;;;2.70;1.50;;;12.20;99.90;;;;;;5041998;28;20224;-70
2021/12/27 08:41:04;;;;;;;1.50;1.40;;;12.20;99.90;;;;;;5042558;28;20187;-70
2021/12/27 08:43:30;;;;;;;1.53;1.30;;;12.20;99.90;;;;;;5055817;28;20207;-70
2021/12/27 08:45:59;;;;;;;2.33;1.53;;;12.30;99.90;;;;;;5024955;28;20196;-68
2021/12/27 08:48:25;;;;;;;1.53;1.43;;;12.40;99.90;;;;;;5044347;28;20218;-70
2021/12/27 08:50:52;;;;;;;2.50;1.50;;;12.50;99.90;;;;;;5030674;28;20214;-69
2021/12/27 08:53:18;;;;;;;1.77;1.20;;;12.50;99.90;;;;;;5041962;28;20275;-70
2021/12/27 08:55:44;;;;;;;2.00;1.37;;;12.50;99.90;;;;;;5054321;28;20759;-69
2021/12/27 08:58:11;;;;;;;4.40;1.60;;;12.60;99.90;;;;;;5052424;28;20314;-69
2021/12/27 09:00:38;;;;;;;1.53;1.43;;;12.70;99.90;;;;;;5035589;28;20215;-69
2021/12/27 09:03:04;;;;;;;3.87;1.67;;;12.80;99.90;;;;;;5043238;28;20208;-70
2021/12/27 09:05:31;;;;;;;1.60;1.47;;;12.90;99.90;;;;;;5057655;28;20760;-69
2021/12/27 09:07:57;;;;;;;1.57;1.40;;;13.00;99.90;;;;;;5032551;28;20250;-70
2021/12/27 09:10:23;;;;;;;2.03;1.40;;;13.00;99.90;;;;;;5052449;28;20189;-70
2021/12/27 09:12:50;;;;;;;2.00;1.57;;;13.10;99.90;;;;;;5043322;28;20188;-70
2021/12/27 09:15:16;;;;;;;1.37;1.20;;;13.20;99.90;;;;;;5052239;28;20268;-70
2021/12/27 09:17:43;;;;;;;1.90;1.40;;;13.40;99.90;;;;;;5038247;28;20284;-70
2021/12/27 09:20:10;;;;;;;1.20;1.10;;;13.40;99.90;;;;;;5052696;28;20435;-70
2021/12/27 09:22:37;;;;;;;2.70;1.77;;;13.50;99.90;;;;;;5043089;28;20211;-70
2021/12/27 09:25:05;;;;;;;2.20;1.60;;;13.50;99.90;;;;;;5048712;28;20953;-70
2021/12/27 09:27:31;;;;;;;2.33;1.57;;;13.70;99.90;;;;;;5025204;28;20235;-70
2021/12/27 09:29:58;;;;;;;1.97;1.47;;;13.80;99.90;;;;;;5048656;28;20199;-70
2021/12/27 09:32:24;;;;;;;3.03;1.37;;;13.80;99.90;;;;;;5057672;28;20188;-70
2021/12/27 09:34:51;;;;;;;2.40;1.67;;;13.90;99.90;;;;;;5043939;28;20327;-70
2021/12/27 09:37:17;;;;;;;2.37;1.73;;;13.90;99.90;;;;;;5057380;28;20184;-69
2021/12/27 09:39:44;;;;;;;1.60;1.50;;;14.00;99.90;;;;;;5061970;28;20248;-70
2021/12/27 09:42:10;;;;;;;2.67;1.47;;;14.10;99.90;;;;;;5035804;28;20254;-69
2021/12/27 09:44:37;;;;;;;3.47;1.70;;;14.10;99.90;;;;;;5057281;28;20194;-69
2021/12/27 09:47:04;;;;;;;1.80;1.60;;;14.20;99.90;;;;;;5044131;28;20184;-70
2021/12/27 09:49:31;;;;;;;3.73;2.10;;;14.30;99.90;;;;;;5054339;28;20254;-70
2021/12/27 09:51:59;;;;;;;1.87;1.70;;;14.40;99.90;;;;;;5041980;28;20261;-70
2021/12/27 09:54:28;;;;;;;2.33;1.70;;;14.50;99.90;;;;;;5056564;28;20704;-70
2021/12/27 09:56:55;;;;;;;1.93;1.70;;;14.50;99.90;;;;;;5040110;28;20272;-71
2021/12/27 09:59:23;;;;;;;5.07;1.83;;;14.40;99.90;;;;;;5041950;28;20188;-70
2021/12/27 10:01:52;;;;;;;2.83;1.70;;;14.40;99.90;;;;;;5035694;28;20211;-70
2021/12/27 10:04:20;;;;;;;2.00;1.80;;;14.30;99.90;;;;;;5022057;28;20295;-70
2021/12/27 10:06:47;;;;;;;3.27;1.80;;;14.20;99.90;;;;;;5046419;28;20249;-70
2021/12/27 10:09:14;;;;;;;2.47;2.00;;;14.10;99.90;;;;;;5040785;28;20179;-70
2021/12/27 10:11:44;;;;;;;2.83;2.37;;;14.00;99.90;;;;;;5045590;28;20259;-70
2021/12/27 10:14:19;;;;;;;3.07;1.90;;;13.90;99.90;;;;;;5062271;28;20215;-68
2021/12/27 10:17:10;;;;;;;2.37;1.90;;;13.80;99.90;;;;;;5039828;28;20235;-71
2021/12/27 10:19:39;;;;;;;5.87;2.33;;;13.70;99.90;;;;;;5044294;28;20652;-70
2021/12/27 10:22:12;;;;;;;3.17;2.20;;;13.70;99.90;;;;;;5057475;28;20216;-68
2021/12/27 10:24:40;;;;;;;3.20;2.23;;;13.70;99.90;;;;;;5040532;28;20286;-70
2021/12/27 10:27:06;;;;;;;3.27;2.10;;;13.70;99.90;;;;;;5040718;28;20188;-70
2021/12/27 10:29:39;;;;;;;4.07;2.40;;;13.60;99.90;;;;;;5051865;28;20206;-70
2021/12/27 10:32:10;;;;;;;3.27;2.60;;;13.60;99.90;;;;;;5046340;28;20913;-70
2021/12/27 10:34:50;;;;;;;4.83;2.60;;;13.60;99.90;;;;;;5059663;28;20563;-68
2021/12/27 10:37:28;;;;;;;3.43;2.53;;;13.60;99.90;;;;;;5042045;28;20254;-67
2021/12/27 10:40:02;;;;;;;3.30;2.67;;;13.60;99.90;;;;;;5029450;28;20191;-68
2021/12/27 10:42:50;;;;;;;2.60;2.17;;;13.50;99.90;;;;;;5035845;28;20212;-68
2021/12/27 10:45:20;;;;;;;4.07;2.53;;;13.50;99.90;;;;;;5035573;28;20184;-68
2021/12/27 10:47:55;;;;;;;2.90;2.17;;;13.50;99.90;;;;;;5035077;28;20179;-68
2021/12/27 10:50:31;;;;;;;3.47;2.70;;;13.50;99.90;;;;;;5041185;28;20183;-67
2021/12/27 10:53:00;;;;;;;4.63;2.67;;;13.50;99.90;;;;;;5053143;28;20210;-70
2021/12/27 10:55:44;;;;;;;3.50;2.40;;;13.50;99.90;;;;;;5056070;28;20212;-70
2021/12/27 10:58:29;;;;;;;3.00;2.43;;;13.50;99.90;;;;;;5041477;28;20191;-68
2021/12/27 11:01:01;;;;;;;8.50;3.47;;;13.50;99.90;;;;;;5033862;28;20183;-67
2021/12/27 11:03:42;;;;;;;6.20;3.20;;;13.40;99.90;;;;;;5050706;28;20355;-70
2021/12/27 11:06:12;;;;;;;5.13;3.20;;;13.40;99.90;;;;;;5034694;28;20283;-68
2021/12/27 11:08:45;;;;;;;6.53;3.20;;;13.40;99.90;;;;;;5038088;28;20240;-67
2021/12/27 11:11:17;;;;;;;4.67;2.73;;;13.40;99.90;;;;;;5039352;28;20179;-67
2021/12/27 11:13:46;;;;;;;6.73;2.83;;;13.50;99.90;;;;;;5055588;28;20195;-70
2021/12/27 11:16:13;;;;;;;5.27;2.60;;;13.40;99.90;;;;;;5054597;28;20256;-67
2021/12/27 11:18:40;;;;;;;3.40;3.10;;;13.40;99.90;;;;;;5034351;28;20600;-70
2021/12/27 11:21:17;;;;;;;7.73;3.43;;;13.40;99.90;;;;;;5036393;28;20611;-67
2021/12/27 11:23:47;;;;;;;6.63;3.30;;;13.40;99.90;;;;;;5037281;28;20741;-67
2021/12/27 11:26:24;;;;;;;5.70;2.90;;;13.40;99.90;;;;;;5041673;28;20234;-68
2021/12/27 11:28:51;;;;;;;4.90;3.03;;;13.40;99.90;;;;;;5041209;28;20699;-69
2021/12/27 11:31:28;;;;;;;3.70;2.30;;;13.40;99.90;;;;;;5025280;28;20683;-67
2021/12/27 11:33:57;;;;;;;2.33;2.10;;;13.40;99.90;;;;;;5034104;28;20629;-67
2021/12/27 11:36:33;;;;;;;3.77;2.63;;;13.40;99.90;;;;;;5056146;28;20199;-70
2021/12/27 11:39:18;;;;;;;2.40;2.20;;;13.40;99.90;;;;;;5036776;28;20182;-70
2021/12/27 11:42:08;;;;;;;2.47;2.27;;;13.40;99.90;;;;;;5039308;28;20652;-69
2021/12/27 11:44:53;;;;;;;2.20;2.00;;;13.40;99.90;;;;;;5054784;28;20633;-70
2021/12/27 11:47:32;;;;;;;4.10;2.50;;;13.40;99.90;;;;;;5041558;28;20187;-69
2021/12/27 11:50:05;;;;;;;5.43;2.50;;;13.40;99.90;;;;;;5035661;28;20186;-69
2021/12/27 11:52:45;;;;;;;4.50;2.33;;;13.40;99.90;;;;;;5037880;28;20188;-69
2021/12/27 11:55:20;;;;;;;3.13;2.00;;;13.40;99.90;;;;;;5046970;28;20199;-69
2021/12/27 11:57:47;;;;;;;2.50;2.30;;;13.40;99.90;;;;;;5040160;28;20195;-69
2021/12/27 12:00:28;;;;;;;4.23;2.70;;;13.40;99.90;;;;;;5049729;28;20202;-69
2021/12/27 12:03:19;;;;;;;5.73;2.30;;;13.40;99.90;;;;;;5049201;28;20222;-70
2021/12/27 12:05:54;;;;;;;11.70;3.03;;;13.40;99.90;;;;;;5052902;28;20176;-69
2021/12/27 12:08:49;;;;;;;3.77;2.20;;;13.40;99.90;;;;;;5042723;28;20281;-69
2021/12/27 12:11:16;;;;;;;3.63;3.00;;;13.40;99.90;;;;;;5052931;28;20582;-70
2021/12/27 12:13:48;;;;;;;6.73;4.13;;;13.40;99.90;;;;;;5046524;28;20195;-69
2021/12/27 12:16:19;;;;;;;4.73;2.70;;;13.40;99.90;;;;;;5032660;28;20283;-67
2021/12/27 12:18:51;;;;;;;2.73;2.43;;;13.40;99.90;;;;;;5040237;28;20221;-67
2021/12/27 12:21:33;;;;;;;2.70;2.30;;;13.40;99.90;;;;;;5053298;28;20212;-69
2021/12/27 12:24:03;;;;;;;2.73;2.50;;;13.40;99.90;;;;;;5054758;28;20198;-70
2021/12/27 12:27:04;;;;;;;3.73;2.90;;;13.40;99.90;;;;;;5039378;28;20684;-69
2021/12/27 12:29:43;;;;;;;2.90;2.20;;;13.40;99.90;;;;;;5051053;28;20246;-68
2021/12/27 12:32:13;;;;;;;4.50;3.03;;;13.30;99.90;;;;;;5042402;28;20190;-68
2021/12/27 12:34:42;;;;;;;8.30;3.13;;;13.30;99.90;;;;;;5014963;28;20223;-70
2021/12/27 12:37:13;;;;;;;3.97;2.70;;;13.30;99.90;;;;;;5053537;28;20196;-70
2021/12/27 12:39:51;;;;;;;5.87;3.50;;;13.30;99.90;;;;;;5064288;28;20236;-70
2021/12/27 12:42:27;;;;;;;5.97;4.20;;;13.30;99.90;;;;;;5041435;28;20258;-70
2021/12/27 12:45:00;;;;;;;5.67;3.50;;;13.30;99.90;;;;;;5059351;28;20202;-69
2021/12/27 12:47:38;;;;;;;4.13;3.70;;;13.30;99.90;;;;;;5039116;28;20176;-69
2021/12/27 12:50:18;;;;;;;4.37;3.83;;;13.30;99.90;;;;;;5054178;28;20663;-70
2021/12/27 12:52:58;;;;;;;6.17;3.53;;;13.30;99.90;;;;;;5056502;28;20628;-70
2021/12/27 12:55:30;;;;;;;5.77;2.83;;;13.30;99.90;;;;;;5050767;28;20188;-69
2021/12/27 12:57:57;;;;;;;4.10;2.93;;;13.30;99.90;;;;;;5041407;28;20203;-70
2021/12/27 13:00:33;;;;;;;4.60;2.73;;;13.30;99.90;;;;;;5042618;28;20282;-69
2021/12/27 13:03:13;;;;;;;3.30;2.40;;;13.30;99.90;;;;;;5037677;28;20738;-69
2021/12/27 13:05:40;;;;;;;3.03;2.40;;;13.30;99.90;;;;;;5042742;28;20195;-69
2021/12/27 13:08:16;;;;;;;3.30;1.90;;;13.30;99.90;;;;;;5024381;28;20652;-69
2021/12/27 13:10:42;;;;;;;2.00;1.80;;;13.20;99.90;;;;;;5040863;28;20275;-69